createdAt,value
2016-09-25T00:00:05.299Z,27.29
2016-09-25T00:00:46.047Z,27.22
2016-09-25T00:01:26.734Z,27.28
2016-09-25T00:02:07.486Z,27.27
2016-09-25T00:02:48.258Z,27.22
2016-09-25T00:03:28.996Z,27.28
2016-09-25T00:04:09.750Z,27.27
2016-09-25T00:04:50.504Z,27.27
2016-09-25T00:05:31.234Z,27.13
2016-09-25T00:06:11.971Z,27.25
2016-09-25T00:06:52.775Z,27.28
2016-09-25T00:07:33.509Z,27.31
2016-09-25T00:08:14.294Z,27.25
2016-09-25T00:08:55.013Z,27.24
2016-09-25T00:09:35.787Z,27.28
2016-09-25T00:10:16.578Z,27.25
2016-09-25T00:10:57.350Z,27.22
2016-09-25T00:11:38.073Z,27.27
2016-09-25T00:12:18.837Z,27.21
2016-09-25T00:12:59.564Z,27.22
2016-09-25T00:13:40.268Z,27.32
2016-09-25T00:14:20.991Z,27.18
2016-09-25T00:15:01.745Z,27.22
2016-09-25T00:15:42.459Z,27.24
2016-09-25T00:16:23.164Z,27.29
2016-09-25T00:17:03.907Z,27.28
2016-09-25T00:17:44.654Z,27.28
2016-09-25T00:18:25.434Z,27.22
2016-09-25T00:19:06.084Z,27.28
2016-09-25T00:19:46.842Z,27.25
2016-09-25T00:20:27.640Z,27.24
2016-09-25T00:21:08.404Z,27.28
2016-09-25T00:21:49.184Z,27.28
2016-09-25T00:22:29.971Z,27.28
2016-09-25T00:23:10.633Z,27.28
2016-09-25T00:23:51.347Z,27.24
2016-09-25T00:24:32.076Z,27.19
2016-09-25T00:25:12.815Z,27.25
2016-09-25T00:25:53.593Z,27.24
2016-09-25T00:26:34.332Z,27.19
2016-09-25T00:27:15.072Z,27.14
2016-09-25T00:27:55.797Z,27.28
2016-09-25T00:28:36.514Z,27.27
2016-09-25T00:29:17.295Z,27.22
2016-09-25T00:29:58.019Z,27.25
2016-09-25T00:30:38.743Z,27.28
2016-09-25T00:31:19.427Z,27.22
2016-09-25T00:32:00.172Z,27.29
2016-09-25T00:32:40.969Z,27.21
2016-09-25T00:33:21.639Z,27.27
2016-09-25T00:34:02.403Z,27.27
2016-09-25T00:34:43.181Z,27.24
2016-09-25T00:35:23.916Z,27.24
2016-09-25T00:36:04.679Z,27.28
2016-09-25T00:36:45.457Z,27.24
2016-09-25T00:37:26.192Z,27.24
2016-09-25T00:38:06.926Z,27.27
2016-09-25T00:38:47.591Z,27.21
2016-09-25T00:39:28.328Z,27.21
2016-09-25T00:40:09.121Z,27.25
2016-09-25T00:40:49.916Z,27.24
2016-09-25T00:41:30.633Z,27.25
2016-09-25T00:42:11.363Z,27.18
2016-09-25T00:42:52.117Z,27.24
2016-09-25T00:43:32.868Z,27.28
2016-09-25T00:44:13.640Z,27.27
2016-09-25T00:44:54.395Z,27.19
2016-09-25T00:45:35.097Z,27.18
2016-09-25T00:46:15.832Z,27.18
2016-09-25T00:46:56.599Z,27.24
2016-09-25T00:47:37.302Z,27.21
2016-09-25T00:48:18.011Z,27.17
2016-09-25T00:48:58.736Z,27.19
2016-09-25T00:49:39.434Z,27.14
2016-09-25T00:50:20.215Z,27.24
2016-09-25T00:51:00.948Z,27.19
2016-09-25T00:51:41.679Z,27.24
2016-09-25T00:52:22.410Z,27.18
2016-09-25T00:53:03.131Z,27.19
2016-09-25T00:53:43.933Z,27.21
2016-09-25T00:54:24.800Z,27.25
2016-09-25T00:55:05.667Z,27.14
2016-09-25T00:55:46.617Z,27.27
2016-09-25T00:56:27.323Z,27.21
2016-09-25T00:57:08.102Z,27.14
2016-09-25T00:57:48.858Z,27.17
2016-09-25T00:58:29.568Z,27.19
2016-09-25T00:59:10.310Z,27.18
2016-09-25T00:59:50.993Z,27.18
2016-09-25T01:00:31.720Z,27.22
2016-09-25T01:01:12.440Z,27.21
2016-09-25T01:01:53.242Z,27.19
2016-09-25T01:02:33.974Z,27.17
2016-09-25T01:03:14.714Z,27.21
2016-09-25T01:03:55.471Z,27.22
2016-09-25T01:04:36.200Z,27.18
2016-09-25T01:05:16.972Z,27.18
2016-09-25T01:05:57.790Z,27.19
2016-09-25T01:06:38.532Z,27.22
2016-09-25T01:07:19.271Z,27.24
2016-09-25T01:08:00.017Z,27.21
2016-09-25T01:08:40.839Z,27.17
2016-09-25T01:09:21.523Z,27.27
2016-09-25T01:10:02.280Z,27.25
2016-09-25T01:10:42.972Z,27.17
2016-09-25T01:11:23.767Z,27.24
2016-09-25T01:12:04.539Z,27.14
2016-09-25T01:12:45.315Z,27.22
2016-09-25T01:13:26.078Z,27.19
2016-09-25T01:14:06.795Z,27.21
2016-09-25T01:14:47.472Z,27.14
2016-09-25T01:15:28.223Z,27.25
2016-09-25T01:16:08.952Z,27.22
2016-09-25T01:16:49.682Z,27.17
2016-09-25T01:17:30.423Z,27.19
2016-09-25T01:18:11.155Z,27.24
2016-09-25T01:18:51.933Z,27.22
2016-09-25T01:19:32.696Z,27.24
2016-09-25T01:20:13.469Z,27.14
2016-09-25T01:20:54.471Z,27.24
2016-09-25T01:21:35.192Z,27.24
2016-09-25T01:22:15.892Z,27.21
2016-09-25T01:22:56.684Z,27.13
2016-09-25T01:23:37.451Z,27.19
2016-09-25T01:24:18.165Z,27.24
2016-09-25T01:24:58.937Z,27.18
2016-09-25T01:25:39.656Z,27.12
2016-09-25T01:26:20.468Z,27.19
2016-09-25T01:27:01.151Z,27.21
2016-09-25T01:27:41.915Z,27.13
2016-09-25T01:28:22.629Z,27.12
2016-09-25T01:29:03.371Z,27.17
2016-09-25T01:29:44.083Z,27.21
2016-09-25T01:30:24.815Z,27.18
2016-09-25T01:31:05.552Z,27.17
2016-09-25T01:31:46.248Z,27.21
2016-09-25T01:32:26.995Z,27.17
2016-09-25T01:33:07.736Z,27.18
2016-09-25T01:33:48.389Z,27.14
2016-09-25T01:34:29.097Z,27.19
2016-09-25T01:35:09.921Z,27.17
2016-09-25T01:35:50.661Z,27.07
2016-09-25T01:36:31.418Z,27.14
2016-09-25T01:37:12.102Z,27.14
2016-09-25T01:37:52.874Z,27.13
2016-09-25T01:38:33.634Z,27.13
2016-09-25T01:39:14.337Z,27.19
2016-09-25T01:39:55.111Z,27.14
2016-09-25T01:40:36.089Z,27.18
2016-09-25T01:41:16.812Z,27.19
2016-09-25T01:41:57.806Z,27.14
2016-09-25T01:42:38.634Z,27.19
2016-09-25T01:43:19.411Z,27.17
2016-09-25T01:44:00.184Z,27.12
2016-09-25T01:44:40.922Z,27.18
2016-09-25T01:45:21.582Z,27.13
2016-09-25T01:46:02.318Z,27.06
2016-09-25T01:46:43.103Z,27.19
2016-09-25T01:47:23.872Z,27.14
2016-09-25T01:48:04.647Z,27.14
2016-09-25T01:48:45.345Z,27.17
2016-09-25T01:49:26.093Z,27.17
2016-09-25T01:50:06.810Z,27.18
2016-09-25T01:50:47.553Z,27.21
2016-09-25T01:51:28.248Z,27.18
2016-09-25T01:52:08.983Z,27.12
2016-09-25T01:52:49.687Z,27.14
2016-09-25T01:53:30.411Z,27.14
2016-09-25T01:54:11.145Z,27.14
2016-09-25T01:54:51.860Z,27.14
2016-09-25T01:55:32.841Z,27.18
2016-09-25T01:56:13.638Z,27.17
2016-09-25T01:56:54.350Z,27.14
2016-09-25T01:57:35.085Z,27.13
2016-09-25T01:58:15.855Z,27.22
2016-09-25T01:58:56.623Z,27.09
2016-09-25T01:59:37.342Z,27.18
2016-09-25T02:00:18.224Z,27.14
2016-09-25T02:00:58.947Z,27.14
2016-09-25T02:01:39.682Z,27.17
2016-09-25T02:02:20.443Z,27.18
2016-09-25T02:03:01.209Z,27.18
2016-09-25T02:03:41.927Z,27.14
2016-09-25T02:04:22.611Z,27.13
2016-09-25T02:05:03.381Z,27.14
2016-09-25T02:05:44.142Z,27.18
2016-09-25T02:06:24.849Z,27.18
2016-09-25T02:07:05.561Z,27.14
2016-09-25T02:07:46.312Z,27.14
2016-09-25T02:08:27.071Z,27.13
2016-09-25T02:09:07.823Z,27.22
2016-09-25T02:09:48.664Z,27.09
2016-09-25T02:10:29.418Z,27.14
2016-09-25T02:11:10.142Z,27.13
2016-09-25T02:11:50.942Z,27.14
2016-09-25T02:12:31.713Z,27.07
2016-09-25T02:13:12.460Z,27.1
2016-09-25T02:13:53.249Z,27.12
2016-09-25T02:14:33.956Z,27.21
2016-09-25T02:15:14.723Z,27.12
2016-09-25T02:15:55.464Z,27.14
2016-09-25T02:16:36.135Z,27.12
2016-09-25T02:17:16.785Z,27.09
2016-09-25T02:17:57.502Z,27.07
2016-09-25T02:18:38.267Z,27.18
2016-09-25T02:19:18.993Z,27.07
2016-09-25T02:19:59.744Z,27.14
2016-09-25T02:20:40.470Z,27.1
2016-09-25T02:21:21.215Z,27.1
2016-09-25T02:22:01.912Z,27.12
2016-09-25T02:22:42.676Z,27.1
2016-09-25T02:23:23.372Z,27.12
2016-09-25T02:24:04.136Z,27.17
2016-09-25T02:24:44.925Z,27.09
2016-09-25T02:25:25.610Z,27.17
2016-09-25T02:26:06.388Z,27.09
2016-09-25T02:26:47.069Z,27.1
2016-09-25T02:27:27.822Z,27.14
2016-09-25T02:28:08.528Z,27.1
2016-09-25T02:28:49.288Z,27.12
2016-09-25T02:29:29.966Z,27.17
2016-09-25T02:30:10.718Z,27.12
2016-09-25T02:30:51.413Z,27.09
2016-09-25T02:31:32.128Z,27.13
2016-09-25T02:32:12.872Z,27.1
2016-09-25T02:32:53.639Z,27.13
2016-09-25T02:33:34.400Z,27.14
2016-09-25T02:34:15.204Z,27.13
2016-09-25T02:34:55.943Z,27.12
2016-09-25T02:35:36.744Z,27.1
2016-09-25T02:36:17.463Z,27.07
2016-09-25T02:36:58.232Z,27.1
2016-09-25T02:37:38.961Z,27.1
2016-09-25T02:38:19.670Z,27.07
2016-09-25T02:39:00.417Z,27.13
2016-09-25T02:39:41.178Z,27.12
2016-09-25T02:40:21.958Z,27.1
2016-09-25T02:41:02.667Z,27.07
2016-09-25T02:41:43.375Z,27.12
2016-09-25T02:42:24.122Z,27.09
2016-09-25T02:43:04.880Z,27.12
2016-09-25T02:43:45.670Z,27.09
2016-09-25T02:44:26.455Z,27.06
2016-09-25T02:45:07.165Z,27.12
2016-09-25T02:45:47.847Z,27.12
2016-09-25T02:46:28.610Z,27.14
2016-09-25T02:47:09.365Z,27.14
2016-09-25T02:47:50.119Z,27.1
2016-09-25T02:48:30.899Z,27.1
2016-09-25T02:49:11.627Z,27.1
2016-09-25T02:49:52.331Z,27.09
2016-09-25T02:50:33.028Z,27.12
2016-09-25T02:51:13.798Z,27.06
2016-09-25T02:51:54.568Z,27.13
2016-09-25T02:52:35.339Z,27.12
2016-09-25T02:53:16.108Z,27.1
2016-09-25T02:53:56.887Z,27.02
2016-09-25T02:54:37.655Z,27.13
2016-09-25T02:55:18.413Z,27.12
2016-09-25T02:55:59.145Z,27.04
2016-09-25T02:56:39.852Z,27.17
2016-09-25T02:57:20.519Z,27.13
2016-09-25T02:58:01.199Z,27.06
2016-09-25T02:58:41.972Z,27.09
2016-09-25T02:59:22.772Z,27.17
2016-09-25T03:00:03.516Z,27.12
2016-09-25T03:00:44.204Z,27.09
2016-09-25T03:01:24.971Z,27.09
2016-09-25T03:02:05.724Z,27.12
2016-09-25T03:02:46.497Z,27.09
2016-09-25T03:03:27.228Z,27.14
2016-09-25T03:04:07.972Z,27.06
2016-09-25T03:04:48.706Z,27.07
2016-09-25T03:05:29.416Z,27.09
2016-09-25T03:06:10.153Z,27.1
2016-09-25T03:06:50.945Z,27.06
2016-09-25T03:07:31.656Z,27.13
2016-09-25T03:08:12.420Z,27.06
2016-09-25T03:08:53.121Z,27.1
2016-09-25T03:09:33.837Z,27.12
2016-09-25T03:10:14.604Z,27.03
2016-09-25T03:10:55.301Z,27.09
2016-09-25T03:11:36.068Z,27.06
2016-09-25T03:12:16.807Z,27.02
2016-09-25T03:12:57.566Z,27.14
2016-09-25T03:13:38.298Z,27.09
2016-09-25T03:14:19.056Z,27.04
2016-09-25T03:14:59.772Z,27.1
2016-09-25T03:15:40.494Z,27.06
2016-09-25T03:16:21.182Z,27.07
2016-09-25T03:17:01.958Z,27.1
2016-09-25T03:17:42.745Z,27.13
2016-09-25T03:18:23.417Z,27.1
2016-09-25T03:19:04.195Z,27.09
2016-09-25T03:19:44.909Z,27.1
2016-09-25T03:20:25.671Z,27.09
2016-09-25T03:21:06.417Z,27.12
2016-09-25T03:21:47.196Z,27.04
2016-09-25T03:22:27.919Z,27.07
2016-09-25T03:23:08.647Z,27.09
2016-09-25T03:23:49.368Z,27.18
2016-09-25T03:24:30.113Z,27.09
2016-09-25T03:25:10.822Z,27.07
2016-09-25T03:25:51.635Z,27.09
2016-09-25T03:26:32.277Z,27.09
2016-09-25T03:27:13.062Z,27.06
2016-09-25T03:27:53.775Z,27.14
2016-09-25T03:28:34.493Z,27.03
2016-09-25T03:29:15.247Z,27.07
2016-09-25T03:29:56.013Z,27.14
2016-09-25T03:30:36.770Z,27.06
2016-09-25T03:31:17.498Z,27.04
2016-09-25T03:31:58.315Z,27.1
2016-09-25T03:32:39.084Z,27.09
2016-09-25T03:33:19.769Z,26.99
2016-09-25T03:34:00.432Z,27.09
2016-09-25T03:34:41.133Z,27.04
2016-09-25T03:35:21.939Z,27.09
2016-09-25T03:36:02.709Z,27.06
2016-09-25T03:36:43.455Z,27.04
2016-09-25T03:37:24.242Z,27.04
2016-09-25T03:38:04.991Z,27.07
2016-09-25T03:38:45.731Z,27.02
2016-09-25T03:39:26.463Z,27.12
2016-09-25T03:40:07.233Z,27.12
2016-09-25T03:40:47.913Z,27.09
2016-09-25T03:41:28.660Z,27.07
2016-09-25T03:42:09.394Z,27.06
2016-09-25T03:42:50.131Z,27.13
2016-09-25T03:43:30.865Z,27.06
2016-09-25T03:44:11.600Z,27.12
2016-09-25T03:44:52.322Z,27.12
2016-09-25T03:45:33.006Z,27.02
2016-09-25T03:46:13.755Z,27.12
2016-09-25T03:46:54.498Z,27.03
2016-09-25T03:47:35.239Z,27.09
2016-09-25T03:48:15.979Z,27.12
2016-09-25T03:48:56.735Z,27.04
2016-09-25T03:49:37.463Z,27.02
2016-09-25T03:50:18.203Z,27.03
2016-09-25T03:50:58.974Z,27.06
2016-09-25T03:51:39.686Z,27.03
2016-09-25T03:52:20.442Z,27.1
2016-09-25T03:53:01.213Z,27.09
2016-09-25T03:53:41.924Z,27.04
2016-09-25T03:54:22.635Z,27.1
2016-09-25T03:55:03.382Z,27.1
2016-09-25T03:55:44.083Z,27.03
2016-09-25T03:56:24.809Z,27.06
2016-09-25T03:57:05.586Z,27.13
2016-09-25T03:57:46.248Z,27.06
2016-09-25T03:58:27.033Z,26.97
2016-09-25T03:59:07.793Z,27
2016-09-25T03:59:48.572Z,27
2016-09-25T04:00:29.419Z,27.09
2016-09-25T04:01:10.208Z,27.07
2016-09-25T04:01:50.929Z,27.07
2016-09-25T04:02:31.701Z,27.04
2016-09-25T04:03:12.486Z,27
2016-09-25T04:03:53.219Z,27.04
2016-09-25T04:04:33.997Z,27.06
2016-09-25T04:05:14.765Z,26.97
2016-09-25T04:05:55.484Z,27.04
2016-09-25T04:06:36.168Z,27.06
2016-09-25T04:07:16.922Z,26.99
2016-09-25T04:07:57.614Z,27.02
2016-09-25T04:08:38.360Z,27.12
2016-09-25T04:09:19.095Z,27.03
2016-09-25T04:09:59.904Z,27.06
2016-09-25T04:10:40.666Z,27.02
2016-09-25T04:11:21.378Z,27
2016-09-25T04:12:02.167Z,27
2016-09-25T04:12:42.913Z,27.13
2016-09-25T04:13:23.676Z,27.04
2016-09-25T04:14:04.459Z,27.02
2016-09-25T04:14:45.196Z,27.07
2016-09-25T04:15:25.882Z,27.07
2016-09-25T04:16:06.716Z,27.02
2016-09-25T04:16:47.489Z,27.03
2016-09-25T04:17:28.198Z,27.1
2016-09-25T04:18:08.944Z,27.03
2016-09-25T04:18:49.695Z,27.04
2016-09-25T04:19:30.459Z,27.06
2016-09-25T04:20:11.167Z,27.12
2016-09-25T04:20:51.971Z,26.99
2016-09-25T04:21:32.698Z,27.04
2016-09-25T04:22:13.431Z,27.03
2016-09-25T04:22:54.170Z,27.06
2016-09-25T04:23:34.947Z,27.09
2016-09-25T04:24:15.671Z,27.02
2016-09-25T04:24:56.410Z,27
2016-09-25T04:25:37.188Z,27
2016-09-25T04:26:17.860Z,26.97
2016-09-25T04:26:58.576Z,27.06
2016-09-25T04:27:39.310Z,26.95
2016-09-25T04:28:20.006Z,27.03
2016-09-25T04:29:00.798Z,26.99
2016-09-25T04:29:41.493Z,27.02
2016-09-25T04:30:22.279Z,26.95
2016-09-25T04:31:03.115Z,27.04
2016-09-25T04:31:43.851Z,27.02
2016-09-25T04:32:24.775Z,27
2016-09-25T04:33:05.529Z,27.03
2016-09-25T04:33:46.270Z,27
2016-09-25T04:34:27.021Z,26.95
2016-09-25T04:35:07.848Z,27.02
2016-09-25T04:35:48.597Z,26.97
2016-09-25T04:36:29.325Z,26.99
2016-09-25T04:37:10.085Z,26.92
2016-09-25T04:37:50.853Z,27.09
2016-09-25T04:38:31.542Z,26.97
2016-09-25T04:39:12.420Z,26.92
2016-09-25T04:39:53.176Z,27
2016-09-25T04:40:33.924Z,26.92
2016-09-25T04:41:14.612Z,27
2016-09-25T04:41:55.315Z,26.94
2016-09-25T04:42:36.057Z,26.92
2016-09-25T04:43:16.797Z,26.99
2016-09-25T04:43:57.602Z,26.95
2016-09-25T04:44:38.333Z,27.02
2016-09-25T04:45:19.070Z,27
2016-09-25T04:45:59.816Z,26.97
2016-09-25T04:46:40.533Z,26.99
2016-09-25T04:47:21.232Z,27.03
2016-09-25T04:48:02.120Z,27.06
2016-09-25T04:48:42.856Z,27.03
2016-09-25T04:49:23.539Z,26.99
2016-09-25T04:50:04.311Z,26.94
2016-09-25T04:50:45.076Z,26.94
2016-09-25T04:51:25.832Z,26.94
2016-09-25T04:52:06.580Z,27.02
2016-09-25T04:52:47.381Z,26.99
2016-09-25T04:53:28.120Z,27.04
2016-09-25T04:54:08.880Z,27.02
2016-09-25T04:54:49.559Z,27.03
2016-09-25T04:55:30.357Z,27
2016-09-25T04:56:11.124Z,26.97
2016-09-25T04:56:51.845Z,26.99
2016-09-25T04:57:32.614Z,27.06
2016-09-25T04:58:13.440Z,26.94
2016-09-25T04:58:54.103Z,26.99
2016-09-25T04:59:34.874Z,26.99
2016-09-25T05:00:15.617Z,27.02
2016-09-25T05:00:56.374Z,26.99
2016-09-25T05:01:37.098Z,26.99
2016-09-25T05:02:17.761Z,26.92
2016-09-25T05:02:58.499Z,26.92
2016-09-25T05:03:39.199Z,26.97
2016-09-25T05:04:19.976Z,27.02
2016-09-25T05:05:00.703Z,26.99
2016-09-25T05:05:41.446Z,26.99
2016-09-25T05:06:22.160Z,27.02
2016-09-25T05:07:02.850Z,26.92
2016-09-25T05:07:43.653Z,27.03
2016-09-25T05:08:24.387Z,27.06
2016-09-25T05:09:05.120Z,26.92
2016-09-25T05:09:45.892Z,26.92
2016-09-25T05:10:26.587Z,26.92
2016-09-25T05:11:07.267Z,27.06
2016-09-25T05:11:47.975Z,26.94
2016-09-25T05:12:28.718Z,26.99
2016-09-25T05:13:09.435Z,26.99
2016-09-25T05:13:50.187Z,26.95
2016-09-25T05:14:30.988Z,26.89
2016-09-25T05:15:11.762Z,26.99
2016-09-25T05:15:52.507Z,26.88
2016-09-25T05:16:33.352Z,26.97
2016-09-25T05:17:13.983Z,27
2016-09-25T05:17:54.808Z,27.03
2016-09-25T05:18:35.575Z,27.04
2016-09-25T05:19:16.337Z,26.92
2016-09-25T05:19:57.083Z,27.03
2016-09-25T05:20:37.776Z,26.95
2016-09-25T05:21:18.573Z,27.03
2016-09-25T05:21:59.312Z,27
2016-09-25T05:22:40.031Z,27.03
2016-09-25T05:23:20.755Z,27.06
2016-09-25T05:24:01.488Z,26.99
2016-09-25T05:24:42.244Z,27.04
2016-09-25T05:25:22.960Z,26.92
2016-09-25T05:26:03.717Z,26.97
2016-09-25T05:26:44.397Z,27.02
2016-09-25T05:27:25.127Z,26.92
2016-09-25T05:28:05.877Z,27.04
2016-09-25T05:28:46.656Z,26.99
2016-09-25T05:29:27.391Z,27.07
2016-09-25T05:30:08.151Z,27
2016-09-25T05:30:48.907Z,26.97
2016-09-25T05:31:29.646Z,27
2016-09-25T05:32:10.425Z,26.89
2016-09-25T05:32:51.136Z,27.02
2016-09-25T05:33:31.862Z,26.89
2016-09-25T05:34:12.607Z,26.95
2016-09-25T05:34:53.382Z,26.91
2016-09-25T05:35:34.113Z,27.02
2016-09-25T05:36:14.858Z,26.95
2016-09-25T05:36:55.649Z,27.04
2016-09-25T05:37:36.379Z,26.95
2016-09-25T05:38:17.134Z,26.94
2016-09-25T05:38:57.900Z,26.94
2016-09-25T05:39:38.619Z,26.99
2016-09-25T05:40:19.346Z,27.02
2016-09-25T05:41:00.128Z,26.99
2016-09-25T05:41:40.867Z,27
2016-09-25T05:42:21.707Z,27.04
2016-09-25T05:43:02.428Z,27.06
2016-09-25T05:43:43.113Z,26.95
2016-09-25T05:44:23.834Z,26.95
2016-09-25T05:45:04.594Z,26.97
2016-09-25T05:45:45.404Z,26.92
2016-09-25T05:46:26.108Z,27.03
2016-09-25T05:47:06.811Z,26.95
2016-09-25T05:47:47.547Z,27.03
2016-09-25T05:48:29.107Z,27
2016-09-25T05:49:08.991Z,26.97
2016-09-25T05:49:49.718Z,26.95
2016-09-25T05:50:30.459Z,27.03
2016-09-25T05:51:11.181Z,27.02
2016-09-25T05:51:51.939Z,26.94
2016-09-25T05:52:32.640Z,27.04
2016-09-25T05:53:13.355Z,26.97
2016-09-25T05:53:54.042Z,26.95
2016-09-25T05:54:34.806Z,26.92
2016-09-25T05:55:15.530Z,27.04
2016-09-25T05:55:56.243Z,27.04
2016-09-25T05:56:36.964Z,26.95
2016-09-25T05:57:17.723Z,26.99
2016-09-25T05:57:58.442Z,27.03
2016-09-25T05:58:39.186Z,27.03
2016-09-25T05:59:19.999Z,26.92
2016-09-25T06:00:00.765Z,26.99
2016-09-25T06:00:41.499Z,27
2016-09-25T06:01:22.297Z,26.99
2016-09-25T06:02:02.994Z,26.99
2016-09-25T06:02:44.644Z,26.94
2016-09-25T06:03:25.414Z,26.99
2016-09-25T06:04:06.144Z,27.02
2016-09-25T06:04:46.908Z,26.92
2016-09-25T06:05:27.589Z,26.99
2016-09-25T06:06:08.309Z,27.06
2016-09-25T06:06:49.055Z,27.03
2016-09-25T06:07:29.766Z,26.94
2016-09-25T06:08:10.451Z,26.97
2016-09-25T06:08:51.204Z,27.09
2016-09-25T06:09:31.973Z,27.03
2016-09-25T06:10:12.764Z,26.95
2016-09-25T06:10:53.496Z,27.06
2016-09-25T06:11:34.230Z,26.94
2016-09-25T06:12:15.016Z,27.04
2016-09-25T06:12:55.794Z,27.04
2016-09-25T06:13:36.506Z,27
2016-09-25T06:14:17.218Z,26.92
2016-09-25T06:14:57.968Z,27.06
2016-09-25T06:15:38.722Z,27.04
2016-09-25T06:16:19.436Z,27
2016-09-25T06:17:00.184Z,26.95
2016-09-25T06:17:40.888Z,27.02
2016-09-25T06:18:21.654Z,27.04
2016-09-25T06:19:02.365Z,26.92
2016-09-25T06:19:43.108Z,26.97
2016-09-25T06:20:23.813Z,26.99
2016-09-25T06:21:04.554Z,26.97
2016-09-25T06:21:45.249Z,27
2016-09-25T06:22:25.969Z,26.94
2016-09-25T06:23:06.705Z,26.97
2016-09-25T06:23:47.501Z,27
2016-09-25T06:24:28.255Z,27.04
2016-09-25T06:25:08.967Z,27.03
2016-09-25T06:25:49.760Z,26.95
2016-09-25T06:26:30.569Z,27
2016-09-25T06:27:11.268Z,27.03
2016-09-25T06:27:52.049Z,26.99
2016-09-25T06:28:32.784Z,27
2016-09-25T06:29:13.497Z,27.03
2016-09-25T06:29:54.218Z,27.09
2016-09-25T06:30:34.896Z,27
2016-09-25T06:31:15.596Z,27.02
2016-09-25T06:31:56.293Z,27.06
2016-09-25T06:32:37.063Z,26.99
2016-09-25T06:33:17.839Z,26.99
2016-09-25T06:33:58.579Z,26.99
2016-09-25T06:34:39.311Z,27.12
2016-09-25T06:35:20.111Z,27.02
2016-09-25T06:36:00.825Z,27.02
2016-09-25T06:36:41.576Z,27.02
2016-09-25T06:37:22.338Z,27.02
2016-09-25T06:38:03.071Z,27.09
2016-09-25T06:38:43.785Z,27.02
2016-09-25T06:39:24.505Z,26.99
2016-09-25T06:40:05.246Z,26.97
2016-09-25T06:40:46.057Z,27.03
2016-09-25T06:41:26.747Z,27
2016-09-25T06:42:07.519Z,27.04
2016-09-25T06:42:48.280Z,27.07
2016-09-25T06:43:29.017Z,27.06
2016-09-25T06:44:09.733Z,27.06
2016-09-25T06:44:50.489Z,27.09
2016-09-25T06:45:31.225Z,27.09
2016-09-25T06:46:12.021Z,27.06
2016-09-25T06:46:52.768Z,27.07
2016-09-25T06:47:33.573Z,27.06
2016-09-25T06:48:14.352Z,27.13
2016-09-25T06:48:55.080Z,27.1
2016-09-25T06:49:35.823Z,27.03
2016-09-25T06:50:16.550Z,27.09
2016-09-25T06:50:57.264Z,27.04
2016-09-25T06:51:38.023Z,27.07
2016-09-25T06:52:18.794Z,27.09
2016-09-25T06:52:59.541Z,27.1
2016-09-25T06:53:40.248Z,27
2016-09-25T06:54:21.026Z,27.04
2016-09-25T06:55:01.728Z,27.03
2016-09-25T06:55:42.456Z,27.12
2016-09-25T06:56:23.173Z,27.07
2016-09-25T06:57:03.913Z,27.07
2016-09-25T06:57:44.680Z,27.13
2016-09-25T06:58:25.438Z,27.07
2016-09-25T06:59:06.256Z,27.09
2016-09-25T06:59:47.025Z,27.13
2016-09-25T07:00:27.758Z,27.06
2016-09-25T07:01:08.490Z,27.06
2016-09-25T07:01:49.140Z,27
2016-09-25T07:02:29.863Z,27.13
2016-09-25T07:03:10.635Z,27.09
2016-09-25T07:03:51.386Z,27.13
2016-09-25T07:04:32.145Z,27.12
2016-09-25T07:05:12.912Z,27.12
2016-09-25T07:05:53.813Z,27.1
2016-09-25T07:06:34.671Z,27.17
2016-09-25T07:07:15.544Z,27.09
2016-09-25T07:07:56.245Z,27.1
2016-09-25T07:08:37.053Z,27.17
2016-09-25T07:09:17.786Z,27.12
2016-09-25T07:09:58.516Z,27.09
2016-09-25T07:10:39.265Z,27.12
2016-09-25T07:11:19.999Z,27.12
2016-09-25T07:12:00.741Z,27.12
2016-09-25T07:12:41.467Z,27.13
2016-09-25T07:13:22.218Z,27.12
2016-09-25T07:14:03.000Z,27.12
2016-09-25T07:14:43.719Z,27.17
2016-09-25T07:15:24.437Z,27.22
2016-09-25T07:16:05.210Z,27.17
2016-09-25T07:16:45.946Z,27.19
2016-09-25T07:17:26.698Z,27.13
2016-09-25T07:18:07.445Z,27.12
2016-09-25T07:18:48.200Z,27.13
2016-09-25T07:19:28.924Z,27.13
2016-09-25T07:20:09.703Z,27.21
2016-09-25T07:20:50.407Z,27.17
2016-09-25T07:21:31.133Z,27.18
2016-09-25T07:22:11.883Z,27.18
2016-09-25T07:22:52.601Z,27.19
2016-09-25T07:23:33.314Z,27.22
2016-09-25T07:24:14.080Z,27.21
2016-09-25T07:24:54.766Z,27.17
2016-09-25T07:25:35.519Z,27.19
2016-09-25T07:26:16.291Z,27.14
2016-09-25T07:26:57.008Z,27.18
2016-09-25T07:27:37.756Z,27.18
2016-09-25T07:28:18.491Z,27.22
2016-09-25T07:28:59.268Z,27.22
2016-09-25T07:29:40.071Z,27.22
2016-09-25T07:30:20.871Z,27.24
2016-09-25T07:31:01.595Z,27.19
2016-09-25T07:31:42.408Z,27.21
2016-09-25T07:32:23.126Z,27.22
2016-09-25T07:33:03.847Z,27.24
2016-09-25T07:33:44.677Z,27.24
2016-09-25T07:34:25.469Z,27.25
2016-09-25T07:35:06.163Z,27.21
2016-09-25T07:35:46.891Z,27.22
2016-09-25T07:36:27.625Z,27.22
2016-09-25T07:37:08.393Z,27.22
2016-09-25T07:37:49.110Z,27.22
2016-09-25T07:38:29.854Z,27.21
2016-09-25T07:39:10.643Z,27.29
2016-09-25T07:39:51.369Z,27.31
2016-09-25T07:40:32.096Z,27.22
2016-09-25T07:41:12.861Z,27.24
2016-09-25T07:41:53.581Z,27.24
2016-09-25T07:42:34.490Z,27.18
2016-09-25T07:43:15.225Z,27.21
2016-09-25T07:43:55.999Z,27.24
2016-09-25T07:44:36.641Z,27.22
2016-09-25T07:45:17.417Z,27.17
2016-09-25T07:45:58.148Z,27.19
2016-09-25T07:46:38.913Z,27.29
2016-09-25T07:47:19.593Z,27.21
2016-09-25T07:48:00.344Z,27.24
2016-09-25T07:48:41.116Z,27.25
2016-09-25T07:49:21.921Z,27.28
2016-09-25T07:50:02.692Z,27.28
2016-09-25T07:50:43.404Z,27.31
2016-09-25T07:51:24.160Z,27.28
2016-09-25T07:52:04.895Z,27.18
2016-09-25T07:52:45.656Z,27.31
2016-09-25T07:53:26.362Z,27.28
2016-09-25T07:54:07.097Z,27.27
2016-09-25T07:54:47.800Z,27.27
2016-09-25T07:55:28.559Z,27.22
2016-09-25T07:56:09.276Z,27.19
2016-09-25T07:56:50.083Z,27.24
2016-09-25T07:57:30.781Z,27.27
2016-09-25T07:58:11.562Z,27.25
2016-09-25T07:58:52.292Z,27.29
2016-09-25T07:59:33.032Z,27.29
2016-09-25T08:00:13.727Z,27.28
2016-09-25T08:00:54.510Z,27.29
2016-09-25T08:01:35.254Z,27.31
2016-09-25T08:02:15.978Z,27.25
2016-09-25T08:02:56.688Z,27.27
2016-09-25T08:03:37.466Z,27.29
2016-09-25T08:04:18.178Z,27.29
2016-09-25T08:04:58.956Z,27.25
2016-09-25T08:05:39.756Z,27.24
2016-09-25T08:06:20.539Z,27.25
2016-09-25T08:07:01.222Z,27.31
2016-09-25T08:07:42.024Z,27.22
2016-09-25T08:08:22.771Z,27.19
2016-09-25T08:09:03.452Z,27.28
2016-09-25T08:09:44.129Z,27.36
2016-09-25T08:10:24.914Z,27.22
2016-09-25T08:11:05.670Z,27.28
2016-09-25T08:11:46.435Z,27.22
2016-09-25T08:12:27.141Z,27.29
2016-09-25T08:13:07.850Z,27.25
2016-09-25T08:13:48.575Z,27.27
2016-09-25T08:14:29.324Z,27.31
2016-09-25T08:15:10.030Z,27.28
2016-09-25T08:15:50.754Z,27.27
2016-09-25T08:16:31.477Z,27.37
2016-09-25T08:17:12.193Z,27.34
2016-09-25T08:17:52.971Z,27.32
2016-09-25T08:18:33.680Z,27.31
2016-09-25T08:19:14.476Z,27.32
2016-09-25T08:19:55.242Z,27.34
2016-09-25T08:20:36.010Z,27.36
2016-09-25T08:21:16.769Z,27.34
2016-09-25T08:21:57.494Z,27.39
2016-09-25T08:22:38.220Z,27.41
2016-09-25T08:23:18.953Z,27.44
2016-09-25T08:23:59.742Z,27.37
2016-09-25T08:24:40.452Z,27.41
2016-09-25T08:25:21.238Z,27.39
2016-09-25T08:26:01.952Z,27.4
2016-09-25T08:26:42.717Z,27.43
2016-09-25T08:27:23.433Z,27.41
2016-09-25T08:28:04.147Z,27.37
2016-09-25T08:28:44.870Z,27.36
2016-09-25T08:29:25.607Z,27.34
2016-09-25T08:30:06.306Z,27.37
2016-09-25T08:30:47.124Z,27.31
2016-09-25T08:31:27.839Z,27.4
2016-09-25T08:32:08.623Z,27.41
2016-09-25T08:32:49.293Z,27.34
2016-09-25T08:33:30.002Z,27.4
2016-09-25T08:34:10.752Z,27.4
2016-09-25T08:34:51.510Z,27.47
2016-09-25T08:35:32.275Z,27.39
2016-09-25T08:36:13.020Z,27.46
2016-09-25T08:36:53.717Z,27.47
2016-09-25T08:37:34.498Z,27.49
2016-09-25T08:38:15.227Z,27.41
2016-09-25T08:38:55.973Z,27.4
2016-09-25T08:39:36.769Z,27.39
2016-09-25T08:40:17.492Z,27.39
2016-09-25T08:40:58.263Z,27.44
2016-09-25T08:41:38.998Z,27.43
2016-09-25T08:42:19.775Z,27.4
2016-09-25T08:43:00.605Z,27.47
2016-09-25T08:43:41.316Z,27.39
2016-09-25T08:44:22.015Z,27.5
2016-09-25T08:45:02.744Z,27.5
2016-09-25T08:45:43.481Z,27.43
2016-09-25T08:46:24.186Z,27.54
2016-09-25T08:47:04.976Z,27.54